sensor_id;sensor_type;location;lat;lon;timestamp;temperature;humidity
74809;DHT22;63338;39.544;2.596;2023-05-15T00:01:51;18.90;71.40
74809;DHT22;63338;39.544;2.596;2023-05-15T00:04:17;18.90;71.40
74809;DHT22;63338;39.544;2.596;2023-05-15T00:06:43;18.90;71.10
74809;DHT22;63338;39.544;2.596;2023-05-15T00:09:09;18.80;70.60
74809;DHT22;63338;39.544;2.596;2023-05-15T00:11:38;18.80;70.30
74809;DHT22;63338;39.544;2.596;2023-05-15T00:14:04;18.80;69.20
74809;DHT22;63338;39.544;2.596;2023-05-15T00:16:30;18.70;68.80
74809;DHT22;63338;39.544;2.596;2023-05-15T00:18:56;18.80;67.70
74809;DHT22;63338;39.544;2.596;2023-05-15T00:21:22;18.70;68.40
74809;DHT22;63338;39.544;2.596;2023-05-15T00:23:48;18.70;68.90
74809;DHT22;63338;39.544;2.596;2023-05-15T00:26:15;18.80;69.40
74809;DHT22;63338;39.544;2.596;2023-05-15T00:28:41;18.80;69.90
74809;DHT22;63338;39.544;2.596;2023-05-15T00:31:07;18.70;69.60
74809;DHT22;63338;39.544;2.596;2023-05-15T00:33:33;18.70;69.10
74809;DHT22;63338;39.544;2.596;2023-05-15T00:36:00;18.80;67.60
74809;DHT22;63338;39.544;2.596;2023-05-15T00:38:26;18.80;67.10
74809;DHT22;63338;39.544;2.596;2023-05-15T00:40:53;18.80;66.80
74809;DHT22;63338;39.544;2.596;2023-05-15T00:43:20;18.80;67.30
74809;DHT22;63338;39.544;2.596;2023-05-15T00:45:47;18.80;67.60
74809;DHT22;63338;39.544;2.596;2023-05-15T00:48:14;18.90;67.40
74809;DHT22;63338;39.544;2.596;2023-05-15T00:50:42;18.70;67.50
74809;DHT22;63338;39.544;2.596;2023-05-15T00:53:09;18.80;67.20
74809;DHT22;63338;39.544;2.596;2023-05-15T00:55:36;18.80;67.30
74809;DHT22;63338;39.544;2.596;2023-05-15T00:58:02;18.80;67.40
74809;DHT22;63338;39.544;2.596;2023-05-15T01:00:30;18.70;67.10
74809;DHT22;63338;39.544;2.596;2023-05-15T01:02:57;18.70;66.90
74809;DHT22;63338;39.544;2.596;2023-05-15T01:05:23;18.80;67.00
74809;DHT22;63338;39.544;2.596;2023-05-15T01:08:04;18.70;67.20
74809;DHT22;63338;39.544;2.596;2023-05-15T01:10:33;18.80;67.40
74809;DHT22;63338;39.544;2.596;2023-05-15T01:13:01;18.80;67.20
74809;DHT22;63338;39.544;2.596;2023-05-15T01:15:28;18.90;67.60
74809;DHT22;63338;39.544;2.596;2023-05-15T01:17:54;18.80;68.30
74809;DHT22;63338;39.544;2.596;2023-05-15T01:20:21;18.80;68.50
74809;DHT22;63338;39.544;2.596;2023-05-15T01:28:29;18.70;69.10
74809;DHT22;63338;39.544;2.596;2023-05-15T01:31:00;18.80;69.50
74809;DHT22;63338;39.544;2.596;2023-05-15T01:33:34;18.70;69.50
74809;DHT22;63338;39.544;2.596;2023-05-15T01:36:02;18.70;69.40
74809;DHT22;63338;39.544;2.596;2023-05-15T01:38:42;18.70;69.60
74809;DHT22;63338;39.544;2.596;2023-05-15T01:43:45;18.60;70.20
74809;DHT22;63338;39.544;2.596;2023-05-15T01:46:17;18.50;70.80
74809;DHT22;63338;39.544;2.596;2023-05-15T01:48:45;18.50;70.80
74809;DHT22;63338;39.544;2.596;2023-05-15T01:51:13;18.30;70.90
74809;DHT22;63338;39.544;2.596;2023-05-15T01:53:39;18.30;71.10
74809;DHT22;63338;39.544;2.596;2023-05-15T01:56:10;18.40;71.20
74809;DHT22;63338;39.544;2.596;2023-05-15T01:58:39;18.20;71.20
74809;DHT22;63338;39.544;2.596;2023-05-15T02:01:05;18.20;71.50
74809;DHT22;63338;39.544;2.596;2023-05-15T02:03:32;18.20;71.70
74809;DHT22;63338;39.544;2.596;2023-05-15T02:06:00;18.10;73.00
74809;DHT22;63338;39.544;2.596;2023-05-15T02:08:27;18.10;73.40
74809;DHT22;63338;39.544;2.596;2023-05-15T02:10:59;17.80;73.20
74809;DHT22;63338;39.544;2.596;2023-05-15T02:13:26;17.70;73.20
74809;DHT22;63338;39.544;2.596;2023-05-15T02:15:53;17.70;73.60
74809;DHT22;63338;39.544;2.596;2023-05-15T02:18:19;17.70;73.50
74809;DHT22;63338;39.544;2.596;2023-05-15T02:20:45;17.60;73.40
74809;DHT22;63338;39.544;2.596;2023-05-15T02:23:11;17.60;73.50
74809;DHT22;63338;39.544;2.596;2023-05-15T02:25:43;17.50;73.70
74809;DHT22;63338;39.544;2.596;2023-05-15T02:28:23;17.40;74.00
74809;DHT22;63338;39.544;2.596;2023-05-15T02:30:57;17.40;73.80
74809;DHT22;63338;39.544;2.596;2023-05-15T02:33:45;17.30;73.70
74809;DHT22;63338;39.544;2.596;2023-05-15T02:36:19;17.20;73.80
74809;DHT22;63338;39.544;2.596;2023-05-15T02:38:50;17.00;73.30
74809;DHT22;63338;39.544;2.596;2023-05-15T02:41:18;17.10;73.50
74809;DHT22;63338;39.544;2.596;2023-05-15T02:43:45;17.00;73.90
74809;DHT22;63338;39.544;2.596;2023-05-15T02:46:13;17.00;73.90
74809;DHT22;63338;39.544;2.596;2023-05-15T02:48:43;16.90;73.50
74809;DHT22;63338;39.544;2.596;2023-05-15T02:51:09;16.90;73.60
74809;DHT22;63338;39.544;2.596;2023-05-15T02:53:39;16.80;73.50
74809;DHT22;63338;39.544;2.596;2023-05-15T02:56:07;16.80;73.70
74809;DHT22;63338;39.544;2.596;2023-05-15T02:58:34;16.80;73.60
74809;DHT22;63338;39.544;2.596;2023-05-15T03:01:00;16.70;73.40
74809;DHT22;63338;39.544;2.596;2023-05-15T03:03:26;16.80;73.70
74809;DHT22;63338;39.544;2.596;2023-05-15T03:05:52;16.80;73.90
74809;DHT22;63338;39.544;2.596;2023-05-15T03:08:18;16.90;73.80
74809;DHT22;63338;39.544;2.596;2023-05-15T03:10:44;16.90;73.60
74809;DHT22;63338;39.544;2.596;2023-05-15T03:13:10;16.80;73.60
74809;DHT22;63338;39.544;2.596;2023-05-15T03:15:36;16.90;73.80
74809;DHT22;63338;39.544;2.596;2023-05-15T03:18:02;17.00;73.90
74809;DHT22;63338;39.544;2.596;2023-05-15T03:20:28;16.90;73.70
74809;DHT22;63338;39.544;2.596;2023-05-15T03:22:54;17.00;74.00
74809;DHT22;63338;39.544;2.596;2023-05-15T03:25:21;17.10;74.00
74809;DHT22;63338;39.544;2.596;2023-05-15T03:27:47;17.10;73.60
74809;DHT22;63338;39.544;2.596;2023-05-15T03:30:13;17.20;73.50
74809;DHT22;63338;39.544;2.596;2023-05-15T03:32:39;17.20;73.50
74809;DHT22;63338;39.544;2.596;2023-05-15T03:35:05;17.10;73.70
74809;DHT22;63338;39.544;2.596;2023-05-15T03:37:32;17.20;73.80
74809;DHT22;63338;39.544;2.596;2023-05-15T03:39:58;17.20;73.90
74809;DHT22;63338;39.544;2.596;2023-05-15T03:42:24;17.20;74.00
74809;DHT22;63338;39.544;2.596;2023-05-15T03:44:50;17.10;74.10
74809;DHT22;63338;39.544;2.596;2023-05-15T03:47:16;17.20;74.20
74809;DHT22;63338;39.544;2.596;2023-05-15T03:49:42;17.20;74.80
74809;DHT22;63338;39.544;2.596;2023-05-15T03:52:09;17.30;74.70
74809;DHT22;63338;39.544;2.596;2023-05-15T03:54:35;17.30;74.80
74809;DHT22;63338;39.544;2.596;2023-05-15T03:57:01;17.40;74.50
74809;DHT22;63338;39.544;2.596;2023-05-15T03:59:29;17.30;74.30
74809;DHT22;63338;39.544;2.596;2023-05-15T04:01:55;17.40;74.30
74809;DHT22;63338;39.544;2.596;2023-05-15T04:04:22;17.40;73.90
74809;DHT22;63338;39.544;2.596;2023-05-15T04:06:51;17.50;73.70
74809;DHT22;63338;39.544;2.596;2023-05-15T04:09:17;17.50;73.60
74809;DHT22;63338;39.544;2.596;2023-05-15T04:11:43;17.50;73.40
74809;DHT22;63338;39.544;2.596;2023-05-15T04:14:11;17.60;73.20
74809;DHT22;63338;39.544;2.596;2023-05-15T04:16:37;17.50;73.40
74809;DHT22;63338;39.544;2.596;2023-05-15T04:19:03;17.60;73.20
74809;DHT22;63338;39.544;2.596;2023-05-15T04:21:30;17.50;73.20
74809;DHT22;63338;39.544;2.596;2023-05-15T04:23:56;17.50;73.10
74809;DHT22;63338;39.544;2.596;2023-05-15T04:26:22;17.40;73.40
74809;DHT22;63338;39.544;2.596;2023-05-15T04:28:48;17.40;73.20
74809;DHT22;63338;39.544;2.596;2023-05-15T04:31:14;17.50;74.10
74809;DHT22;63338;39.544;2.596;2023-05-15T04:33:40;17.50;73.80
74809;DHT22;63338;39.544;2.596;2023-05-15T04:36:07;17.60;74.00
74809;DHT22;63338;39.544;2.596;2023-05-15T04:38:33;17.70;73.80
74809;DHT22;63338;39.544;2.596;2023-05-15T04:40:59;17.70;73.30
74809;DHT22;63338;39.544;2.596;2023-05-15T04:43:26;17.60;73.50
74809;DHT22;63338;39.544;2.596;2023-05-15T04:45:52;17.70;73.40
74809;DHT22;63338;39.544;2.596;2023-05-15T04:48:18;17.70;73.40
74809;DHT22;63338;39.544;2.596;2023-05-15T04:50:44;17.60;73.60
74809;DHT22;63338;39.544;2.596;2023-05-15T04:53:10;17.60;73.60
74809;DHT22;63338;39.544;2.596;2023-05-15T04:55:36;17.70;74.00
74809;DHT22;63338;39.544;2.596;2023-05-15T04:58:02;17.60;74.00
74809;DHT22;63338;39.544;2.596;2023-05-15T05:00:28;17.70;74.10
74809;DHT22;63338;39.544;2.596;2023-05-15T05:02:54;17.70;74.40
74809;DHT22;63338;39.544;2.596;2023-05-15T05:05:20;17.70;74.50
74809;DHT22;63338;39.544;2.596;2023-05-15T05:07:46;17.70;74.70
74809;DHT22;63338;39.544;2.596;2023-05-15T05:10:12;17.80;74.50
74809;DHT22;63338;39.544;2.596;2023-05-15T05:12:39;17.80;74.70
74809;DHT22;63338;39.544;2.596;2023-05-15T05:15:05;18.00;74.60
74809;DHT22;63338;39.544;2.596;2023-05-15T05:17:31;18.00;74.70
74809;DHT22;63338;39.544;2.596;2023-05-15T05:19:57;17.90;74.20
74809;DHT22;63338;39.544;2.596;2023-05-15T05:22:24;18.10;73.90
74809;DHT22;63338;39.544;2.596;2023-05-15T05:24:52;18.00;73.80
74809;DHT22;63338;39.544;2.596;2023-05-15T05:27:17;18.20;72.50
74809;DHT22;63338;39.544;2.596;2023-05-15T05:29:43;18.20;72.30
74809;DHT22;63338;39.544;2.596;2023-05-15T05:32:09;18.40;72.40
74809;DHT22;63338;39.544;2.596;2023-05-15T05:34:35;18.50;72.20
74809;DHT22;63338;39.544;2.596;2023-05-15T05:37:02;18.40;72.10
74809;DHT22;63338;39.544;2.596;2023-05-15T05:39:28;18.50;72.20
74809;DHT22;63338;39.544;2.596;2023-05-15T05:41:53;18.60;72.00
74809;DHT22;63338;39.544;2.596;2023-05-15T05:44:20;18.80;71.90
74809;DHT22;63338;39.544;2.596;2023-05-15T05:46:46;18.80;71.70
74809;DHT22;63338;39.544;2.596;2023-05-15T05:49:12;18.80;71.50
74809;DHT22;63338;39.544;2.596;2023-05-15T05:51:38;19.00;71.40
74809;DHT22;63338;39.544;2.596;2023-05-15T05:54:04;19.00;71.30
74809;DHT22;63338;39.544;2.596;2023-05-15T05:56:30;19.00;71.50
74809;DHT22;63338;39.544;2.596;2023-05-15T05:58:59;19.00;71.50
74809;DHT22;63338;39.544;2.596;2023-05-15T06:01:26;19.10;71.50
74809;DHT22;63338;39.544;2.596;2023-05-15T06:03:55;19.00;71.50
74809;DHT22;63338;39.544;2.596;2023-05-15T06:06:21;19.10;71.40
74809;DHT22;63338;39.544;2.596;2023-05-15T06:08:47;19.20;71.30
74809;DHT22;63338;39.544;2.596;2023-05-15T06:11:13;19.30;71.30
74809;DHT22;63338;39.544;2.596;2023-05-15T06:13:39;19.30;71.40
74809;DHT22;63338;39.544;2.596;2023-05-15T06:16:08;19.40;71.20
74809;DHT22;63338;39.544;2.596;2023-05-15T06:18:37;19.50;70.90
74809;DHT22;63338;39.544;2.596;2023-05-15T06:21:03;19.60;70.80
74809;DHT22;63338;39.544;2.596;2023-05-15T06:23:29;19.70;70.50
74809;DHT22;63338;39.544;2.596;2023-05-15T06:25:55;19.90;70.30
74809;DHT22;63338;39.544;2.596;2023-05-15T06:28:21;20.00;70.40
74809;DHT22;63338;39.544;2.596;2023-05-15T06:30:47;20.00;70.30
74809;DHT22;63338;39.544;2.596;2023-05-15T06:33:13;20.20;69.70
74809;DHT22;63338;39.544;2.596;2023-05-15T06:35:39;20.30;68.90
74809;DHT22;63338;39.544;2.596;2023-05-15T06:38:08;20.30;68.30
74809;DHT22;63338;39.544;2.596;2023-05-15T06:40:34;20.30;68.50
74809;DHT22;63338;39.544;2.596;2023-05-15T06:43:00;20.40;67.90
74809;DHT22;63338;39.544;2.596;2023-05-15T06:45:26;20.40;67.70
74809;DHT22;63338;39.544;2.596;2023-05-15T06:47:52;20.40;67.40
74809;DHT22;63338;39.544;2.596;2023-05-15T06:50:20;20.50;67.60
74809;DHT22;63338;39.544;2.596;2023-05-15T06:52:46;20.60;67.40
74809;DHT22;63338;39.544;2.596;2023-05-15T06:55:13;20.80;67.00
74809;DHT22;63338;39.544;2.596;2023-05-15T06:57:39;20.80;68.40
74809;DHT22;63338;39.544;2.596;2023-05-15T07:00:05;21.00;67.70
74809;DHT22;63338;39.544;2.596;2023-05-15T07:02:32;20.90;67.50
74809;DHT22;63338;39.544;2.596;2023-05-15T07:04:58;20.90;69.20
74809;DHT22;63338;39.544;2.596;2023-05-15T07:07:24;21.00;68.50
74809;DHT22;63338;39.544;2.596;2023-05-15T07:09:50;21.00;69.20
74809;DHT22;63338;39.544;2.596;2023-05-15T07:12:16;20.90;68.20
74809;DHT22;63338;39.544;2.596;2023-05-15T07:14:42;21.00;67.20
74809;DHT22;63338;39.544;2.596;2023-05-15T07:17:08;21.10;66.80
74809;DHT22;63338;39.544;2.596;2023-05-15T07:19:34;21.20;66.80
74809;DHT22;63338;39.544;2.596;2023-05-15T07:22:00;21.30;66.10
74809;DHT22;63338;39.544;2.596;2023-05-15T07:24:26;21.40;65.90
74809;DHT22;63338;39.544;2.596;2023-05-15T07:26:52;21.50;65.80
74809;DHT22;63338;39.544;2.596;2023-05-15T07:29:20;21.60;64.20
74809;DHT22;63338;39.544;2.596;2023-05-15T07:31:46;21.60;63.90
74809;DHT22;63338;39.544;2.596;2023-05-15T07:34:13;21.70;64.50
74809;DHT22;63338;39.544;2.596;2023-05-15T07:36:39;21.80;63.80
74809;DHT22;63338;39.544;2.596;2023-05-15T07:39:05;21.90;64.10
74809;DHT22;63338;39.544;2.596;2023-05-15T07:41:31;21.90;63.80
74809;DHT22;63338;39.544;2.596;2023-05-15T07:43:58;22.10;63.40
74809;DHT22;63338;39.544;2.596;2023-05-15T07:46:24;22.30;62.10
74809;DHT22;63338;39.544;2.596;2023-05-15T07:48:50;22.40;60.70
74809;DHT22;63338;39.544;2.596;2023-05-15T07:51:16;22.50;60.60
74809;DHT22;63338;39.544;2.596;2023-05-15T07:53:42;22.70;59.50
74809;DHT22;63338;39.544;2.596;2023-05-15T07:56:08;22.90;58.90
74809;DHT22;63338;39.544;2.596;2023-05-15T07:58:35;23.00;57.50
74809;DHT22;63338;39.544;2.596;2023-05-15T08:01:03;23.10;57.80
74809;DHT22;63338;39.544;2.596;2023-05-15T08:03:28;23.20;57.60
74809;DHT22;63338;39.544;2.596;2023-05-15T08:05:55;23.30;57.40
74809;DHT22;63338;39.544;2.596;2023-05-15T08:08:22;23.40;57.30
74809;DHT22;63338;39.544;2.596;2023-05-15T08:10:47;23.50;59.10
74809;DHT22;63338;39.544;2.596;2023-05-15T08:13:13;23.50;60.20
74809;DHT22;63338;39.544;2.596;2023-05-15T08:15:39;23.30;60.10
74809;DHT22;63338;39.544;2.596;2023-05-15T08:18:09;23.20;59.90
74809;DHT22;63338;39.544;2.596;2023-05-15T08:20:36;23.00;62.40
74809;DHT22;63338;39.544;2.596;2023-05-15T08:23:04;23.00;63.30
74809;DHT22;63338;39.544;2.596;2023-05-15T08:25:31;22.90;63.60
74809;DHT22;63338;39.544;2.596;2023-05-15T08:27:58;22.80;63.70
74809;DHT22;63338;39.544;2.596;2023-05-15T08:30:41;22.70;64.30
74809;DHT22;63338;39.544;2.596;2023-05-15T08:33:06;22.80;64.40
74809;DHT22;63338;39.544;2.596;2023-05-15T08:35:33;22.70;64.80
74809;DHT22;63338;39.544;2.596;2023-05-15T08:37:59;22.70;63.30
74809;DHT22;63338;39.544;2.596;2023-05-15T08:40:26;22.80;62.50
74809;DHT22;63338;39.544;2.596;2023-05-15T08:42:54;23.00;62.30
74809;DHT22;63338;39.544;2.596;2023-05-15T08:45:20;22.80;64.50
74809;DHT22;63338;39.544;2.596;2023-05-15T08:47:46;22.90;64.30
74809;DHT22;63338;39.544;2.596;2023-05-15T08:50:14;22.90;64.50
74809;DHT22;63338;39.544;2.596;2023-05-15T08:52:42;23.30;62.80
74809;DHT22;63338;39.544;2.596;2023-05-15T08:55:09;23.50;61.90
74809;DHT22;63338;39.544;2.596;2023-05-15T08:57:36;23.90;61.00
74809;DHT22;63338;39.544;2.596;2023-05-15T09:00:04;24.20;59.80
74809;DHT22;63338;39.544;2.596;2023-05-15T09:02:37;24.50;58.60
74809;DHT22;63338;39.544;2.596;2023-05-15T09:05:07;24.60;58.40
74809;DHT22;63338;39.544;2.596;2023-05-15T09:07:34;25.00;57.40
74809;DHT22;63338;39.544;2.596;2023-05-15T09:10:02;25.50;56.70
74809;DHT22;63338;39.544;2.596;2023-05-15T09:12:32;25.90;54.50
74809;DHT22;63338;39.544;2.596;2023-05-15T09:15:14;26.20;53.60
74809;DHT22;63338;39.544;2.596;2023-05-15T09:17:42;25.70;54.50
74809;DHT22;63338;39.544;2.596;2023-05-15T09:20:32;25.20;55.20
74809;DHT22;63338;39.544;2.596;2023-05-15T09:23:25;24.90;56.40
74809;DHT22;63338;39.544;2.596;2023-05-15T09:25:56;24.50;57.80
74809;DHT22;63338;39.544;2.596;2023-05-15T09:28:33;24.10;58.00
74809;DHT22;63338;39.544;2.596;2023-05-15T09:31:04;23.90;57.50
74809;DHT22;63338;39.544;2.596;2023-05-15T09:33:32;23.70;57.60
74809;DHT22;63338;39.544;2.596;2023-05-15T09:35:59;23.40;57.60
74809;DHT22;63338;39.544;2.596;2023-05-15T09:38:26;23.20;57.60
74809;DHT22;63338;39.544;2.596;2023-05-15T09:41:06;23.00;57.00
74809;DHT22;63338;39.544;2.596;2023-05-15T09:43:36;22.90;56.80
74809;DHT22;63338;39.544;2.596;2023-05-15T09:46:03;22.80;56.50
74809;DHT22;63338;39.544;2.596;2023-05-15T09:48:30;22.90;56.60
74809;DHT22;63338;39.544;2.596;2023-05-15T09:50:56;22.90;56.50
74809;DHT22;63338;39.544;2.596;2023-05-15T09:53:23;23.00;56.20
74809;DHT22;63338;39.544;2.596;2023-05-15T09:55:51;23.10;55.20
74809;DHT22;63338;39.544;2.596;2023-05-15T09:58:18;23.20;55.70
74809;DHT22;63338;39.544;2.596;2023-05-15T10:01:10;23.10;56.10
74809;DHT22;63338;39.544;2.596;2023-05-15T10:03:46;23.10;56.10
74809;DHT22;63338;39.544;2.596;2023-05-15T10:06:47;23.10;56.40
74809;DHT22;63338;39.544;2.596;2023-05-15T10:09:14;23.30;56.50
74809;DHT22;63338;39.544;2.596;2023-05-15T10:11:43;23.60;56.60
74809;DHT22;63338;39.544;2.596;2023-05-15T10:14:12;24.10;53.20
74809;DHT22;63338;39.544;2.596;2023-05-15T10:16:41;24.60;51.80
74809;DHT22;63338;39.544;2.596;2023-05-15T10:19:12;25.10;50.00
74809;DHT22;63338;39.544;2.596;2023-05-15T10:21:40;25.60;49.20
74809;DHT22;63338;39.544;2.596;2023-05-15T10:24:07;25.90;49.20
74809;DHT22;63338;39.544;2.596;2023-05-15T10:26:34;26.20;47.30
74809;DHT22;63338;39.544;2.596;2023-05-15T10:29:07;26.60;45.60
74809;DHT22;63338;39.544;2.596;2023-05-15T10:31:33;27.20;45.40
74809;DHT22;63338;39.544;2.596;2023-05-15T10:34:09;28.00;47.10
74809;DHT22;63338;39.544;2.596;2023-05-15T10:36:36;28.50;47.10
74809;DHT22;63338;39.544;2.596;2023-05-15T10:39:05;29.00;47.00
74809;DHT22;63338;39.544;2.596;2023-05-15T10:41:38;29.30;45.70
74809;DHT22;63338;39.544;2.596;2023-05-15T10:44:05;28.90;46.20
74809;DHT22;63338;39.544;2.596;2023-05-15T10:46:34;28.10;46.90
74809;DHT22;63338;39.544;2.596;2023-05-15T10:49:02;27.30;47.90
74809;DHT22;63338;39.544;2.596;2023-05-15T10:51:30;26.60;48.60
74809;DHT22;63338;39.544;2.596;2023-05-15T10:53:59;25.70;50.20
74809;DHT22;63338;39.544;2.596;2023-05-15T10:56:36;25.20;51.10
74809;DHT22;63338;39.544;2.596;2023-05-15T10:59:10;24.60;52.20
74809;DHT22;63338;39.544;2.596;2023-05-15T11:01:38;24.20;54.00
74809;DHT22;63338;39.544;2.596;2023-05-15T11:04:14;23.80;55.20
74809;DHT22;63338;39.544;2.596;2023-05-15T11:06:44;23.50;56.40
74809;DHT22;63338;39.544;2.596;2023-05-15T11:11:56;23.00;57.30
74809;DHT22;63338;39.544;2.596;2023-05-15T11:14:25;22.90;59.90
74809;DHT22;63338;39.544;2.596;2023-05-15T11:25:09;23.30;58.60
74809;DHT22;63338;39.544;2.596;2023-05-15T11:27:43;23.50;56.20
74809;DHT22;63338;39.544;2.596;2023-05-15T11:30:17;23.60;56.60
74809;DHT22;63338;39.544;2.596;2023-05-15T11:32:48;23.60;55.10
74809;DHT22;63338;39.544;2.596;2023-05-15T11:37:48;23.70;55.20
74809;DHT22;63338;39.544;2.596;2023-05-15T11:40:27;23.70;55.30
74809;DHT22;63338;39.544;2.596;2023-05-15T11:43:15;23.60;55.10
74809;DHT22;63338;39.544;2.596;2023-05-15T11:45:44;23.50;55.10
74809;DHT22;63338;39.544;2.596;2023-05-15T11:48:15;23.50;56.40
74809;DHT22;63338;39.544;2.596;2023-05-15T11:50:41;23.50;55.90
74809;DHT22;63338;39.544;2.596;2023-05-15T11:53:08;23.50;56.30
74809;DHT22;63338;39.544;2.596;2023-05-15T11:55:37;23.50;56.20
74809;DHT22;63338;39.544;2.596;2023-05-15T11:58:04;23.70;56.50
74809;DHT22;63338;39.544;2.596;2023-05-15T12:00:30;23.70;54.80
74809;DHT22;63338;39.544;2.596;2023-05-15T12:02:59;23.70;53.30
74809;DHT22;63338;39.544;2.596;2023-05-15T12:05:28;23.60;54.10
74809;DHT22;63338;39.544;2.596;2023-05-15T12:07:55;23.50;56.30
74809;DHT22;63338;39.544;2.596;2023-05-15T12:10:22;23.40;55.70
74809;DHT22;63338;39.544;2.596;2023-05-15T12:12:48;23.40;55.50
74809;DHT22;63338;39.544;2.596;2023-05-15T12:15:17;23.30;54.00
74809;DHT22;63338;39.544;2.596;2023-05-15T12:17:46;23.10;53.80
74809;DHT22;63338;39.544;2.596;2023-05-15T12:20:19;23.10;53.60
74809;DHT22;63338;39.544;2.596;2023-05-15T12:22:46;23.00;54.30
74809;DHT22;63338;39.544;2.596;2023-05-15T12:25:14;23.00;54.50
74809;DHT22;63338;39.544;2.596;2023-05-15T12:27:40;23.00;53.70
74809;DHT22;63338;39.544;2.596;2023-05-15T12:30:07;22.90;53.40
74809;DHT22;63338;39.544;2.596;2023-05-15T12:32:36;23.00;52.60
74809;DHT22;63338;39.544;2.596;2023-05-15T12:35:06;23.00;53.60
74809;DHT22;63338;39.544;2.596;2023-05-15T12:37:35;23.00;52.40
74809;DHT22;63338;39.544;2.596;2023-05-15T12:40:05;23.00;52.60
74809;DHT22;63338;39.544;2.596;2023-05-15T12:42:40;23.10;51.70
74809;DHT22;63338;39.544;2.596;2023-05-15T12:45:16;23.20;51.10
74809;DHT22;63338;39.544;2.596;2023-05-15T12:47:47;23.20;50.70
74809;DHT22;63338;39.544;2.596;2023-05-15T12:50:20;23.20;50.50
74809;DHT22;63338;39.544;2.596;2023-05-15T12:55:29;23.40;50.40
74809;DHT22;63338;39.544;2.596;2023-05-15T12:58:12;23.60;49.40
74809;DHT22;63338;39.544;2.596;2023-05-15T13:01:02;23.70;47.10
74809;DHT22;63338;39.544;2.596;2023-05-15T13:03:37;23.80;47.30
74809;DHT22;63338;39.544;2.596;2023-05-15T13:06:05;23.80;47.20
74809;DHT22;63338;39.544;2.596;2023-05-15T13:08:32;23.90;46.70
74809;DHT22;63338;39.544;2.596;2023-05-15T13:11:04;24.00;47.20
74809;DHT22;63338;39.544;2.596;2023-05-15T13:14:09;24.10;46.00
74809;DHT22;63338;39.544;2.596;2023-05-15T13:16:43;24.20;46.50
74809;DHT22;63338;39.544;2.596;2023-05-15T13:19:09;24.30;47.00
74809;DHT22;63338;39.544;2.596;2023-05-15T13:21:42;24.40;46.30
74809;DHT22;63338;39.544;2.596;2023-05-15T13:24:09;24.60;45.40
74809;DHT22;63338;39.544;2.596;2023-05-15T13:26:35;24.50;45.70
74809;DHT22;63338;39.544;2.596;2023-05-15T13:29:02;24.70;46.40
74809;DHT22;63338;39.544;2.596;2023-05-15T13:31:28;24.80;46.30
74809;DHT22;63338;39.544;2.596;2023-05-15T13:33:54;24.80;46.60
74809;DHT22;63338;39.544;2.596;2023-05-15T13:36:20;24.90;46.10
74809;DHT22;63338;39.544;2.596;2023-05-15T13:38:46;25.10;45.60
74809;DHT22;63338;39.544;2.596;2023-05-15T13:41:13;25.20;45.90
74809;DHT22;63338;39.544;2.596;2023-05-15T13:43:39;25.20;45.30
74809;DHT22;63338;39.544;2.596;2023-05-15T13:46:05;25.20;45.00
74809;DHT22;63338;39.544;2.596;2023-05-15T13:48:31;25.20;45.50
74809;DHT22;63338;39.544;2.596;2023-05-15T13:50:57;25.00;45.20
74809;DHT22;63338;39.544;2.596;2023-05-15T13:53:23;24.90;44.80
74809;DHT22;63338;39.544;2.596;2023-05-15T13:55:49;24.70;44.00
74809;DHT22;63338;39.544;2.596;2023-05-15T13:58:15;24.60;44.50
74809;DHT22;63338;39.544;2.596;2023-05-15T14:00:42;24.60;44.70
74809;DHT22;63338;39.544;2.596;2023-05-15T14:03:08;24.50;44.70
74809;DHT22;63338;39.544;2.596;2023-05-15T14:05:34;24.50;43.80
74809;DHT22;63338;39.544;2.596;2023-05-15T14:08:01;24.30;43.80
74809;DHT22;63338;39.544;2.596;2023-05-15T14:10:28;24.20;44.40
74809;DHT22;63338;39.544;2.596;2023-05-15T14:12:54;24.10;44.40
74809;DHT22;63338;39.544;2.596;2023-05-15T14:15:20;24.20;43.70
74809;DHT22;63338;39.544;2.596;2023-05-15T14:17:47;24.10;43.60
74809;DHT22;63338;39.544;2.596;2023-05-15T14:20:15;24.10;43.60
74809;DHT22;63338;39.544;2.596;2023-05-15T14:22:41;24.00;43.90
74809;DHT22;63338;39.544;2.596;2023-05-15T14:25:07;24.20;43.90
74809;DHT22;63338;39.544;2.596;2023-05-15T14:27:34;24.00;44.00
74809;DHT22;63338;39.544;2.596;2023-05-15T14:30:00;24.10;44.20
74809;DHT22;63338;39.544;2.596;2023-05-15T14:32:26;24.10;43.00
74809;DHT22;63338;39.544;2.596;2023-05-15T14:34:52;24.10;43.70
74809;DHT22;63338;39.544;2.596;2023-05-15T14:37:22;24.20;43.90
74809;DHT22;63338;39.544;2.596;2023-05-15T14:39:47;24.10;44.00
74809;DHT22;63338;39.544;2.596;2023-05-15T14:42:13;24.10;43.30
74809;DHT22;63338;39.544;2.596;2023-05-15T14:44:41;24.10;43.30
74809;DHT22;63338;39.544;2.596;2023-05-15T14:47:10;24.10;43.10
74809;DHT22;63338;39.544;2.596;2023-05-15T14:49:37;24.20;43.30
74809;DHT22;63338;39.544;2.596;2023-05-15T14:52:07;24.20;43.50
74809;DHT22;63338;39.544;2.596;2023-05-15T14:54:34;24.10;43.40
74809;DHT22;63338;39.544;2.596;2023-05-15T14:57:00;24.00;43.20
74809;DHT22;63338;39.544;2.596;2023-05-15T14:59:27;24.10;43.80
74809;DHT22;63338;39.544;2.596;2023-05-15T15:01:56;24.10;44.30
74809;DHT22;63338;39.544;2.596;2023-05-15T15:04:23;23.90;44.90
74809;DHT22;63338;39.544;2.596;2023-05-15T15:06:51;23.90;45.80
74809;DHT22;63338;39.544;2.596;2023-05-15T15:09:17;24.00;46.20
74809;DHT22;63338;39.544;2.596;2023-05-15T15:11:44;24.00;46.10
74809;DHT22;63338;39.544;2.596;2023-05-15T15:14:10;23.90;45.40
74809;DHT22;63338;39.544;2.596;2023-05-15T15:16:36;23.90;45.70
74809;DHT22;63338;39.544;2.596;2023-05-15T15:19:02;23.90;45.90
74809;DHT22;63338;39.544;2.596;2023-05-15T15:21:28;24.00;45.90
74809;DHT22;63338;39.544;2.596;2023-05-15T15:23:55;24.00;45.60
74809;DHT22;63338;39.544;2.596;2023-05-15T15:26:21;24.00;46.10
74809;DHT22;63338;39.544;2.596;2023-05-15T15:28:47;24.00;45.80
74809;DHT22;63338;39.544;2.596;2023-05-15T15:31:16;24.10;45.90
74809;DHT22;63338;39.544;2.596;2023-05-15T15:33:42;24.00;46.50
74809;DHT22;63338;39.544;2.596;2023-05-15T15:36:08;24.00;46.30
74809;DHT22;63338;39.544;2.596;2023-05-15T15:38:34;23.90;46.60
74809;DHT22;63338;39.544;2.596;2023-05-15T15:41:01;23.90;46.80
74809;DHT22;63338;39.544;2.596;2023-05-15T15:43:28;23.90;46.70
74809;DHT22;63338;39.544;2.596;2023-05-15T15:45:55;23.90;46.70
74809;DHT22;63338;39.544;2.596;2023-05-15T15:48:21;23.90;46.30
74809;DHT22;63338;39.544;2.596;2023-05-15T15:50:47;23.90;46.80
74809;DHT22;63338;39.544;2.596;2023-05-15T15:53:13;24.10;46.70
74809;DHT22;63338;39.544;2.596;2023-05-15T15:55:39;24.00;46.40
74809;DHT22;63338;39.544;2.596;2023-05-15T15:58:05;24.00;46.50
74809;DHT22;63338;39.544;2.596;2023-05-15T16:00:31;23.90;46.30